Brattforshede Airport


Codes: ESSM/
Name: Brattforshede Airport
City: Lindfors
Country: Sweden
Elevation: 0 ft.

Photos at Brattforshede Airport


   Photos courtesy of SpottingLog. You can add your own sightings and photos by signing up for a free trial today.



No photos found.

Weather at Brattforshede Airport


Time (UTC)DescriptionTempratureWindCloud coverageVisibilityPressureHumidity
25-Jun-2024 15:00Few Clouds23°C9 mph, SW23%10000m1019hPa38%
25-Jun-2024 18:00Scattered Clouds21°C7 mph, S25%10000m1018hPa44%
25-Jun-2024 21:00Clear Sky14°C2 mph, SW7%10000m1017hPa74%
26-Jun-2024 00:00Clear Sky12°C2 mph, SW7%10000m1018hPa82%
26-Jun-2024 03:00Clear Sky11°C2 mph, S2%10000m1017hPa81%
26-Jun-2024 06:00Clear Sky17°C7 mph, SW3%10000m1017hPa61%
26-Jun-2024 09:00Clear Sky21°C7 mph, SW0%10000m1017hPa47%
26-Jun-2024 12:00Clear Sky24°C9 mph, S0%10000m1016hPa42%
26-Jun-2024 15:00Clear Sky25°C7 mph, S0%10000m1015hPa43%
26-Jun-2024 18:00Clear Sky22°C4 mph, S0%10000m1015hPa57%
26-Jun-2024 21:00Clear Sky16°C2 mph, S0%10000m1015hPa71%
27-Jun-2024 00:00Clear Sky14°C2 mph, E0%10000m1015hPa76%
27-Jun-2024 03:00Clear Sky14°C2 mph, E0%10000m1015hPa79%
27-Jun-2024 06:00Clear Sky22°C2 mph, SE0%10000m1014hPa54%
27-Jun-2024 09:00Clear Sky26°C7 mph, S0%10000m1013hPa40%
27-Jun-2024 12:00Clear Sky28°C9 mph, S0%10000m1012hPa36%
27-Jun-2024 15:00Clear Sky29°C7 mph, S0%10000m1011hPa35%
27-Jun-2024 18:00Scattered Clouds22°C4 mph, S32%10000m1010hPa60%
27-Jun-2024 21:00Broken Clouds19°C4 mph, SE64%10000m1010hPa76%
28-Jun-2024 00:00Broken Clouds20°C7 mph, SE64%10000m1009hPa66%
28-Jun-2024 03:00Scattered Clouds16°C7 mph, SE38%10000m1007hPa84%
28-Jun-2024 06:00Broken Clouds20°C9 mph, SE66%10000m1005hPa69%
28-Jun-2024 09:00Light Rain20°C11 mph, S100%10000m1005hPa88%
28-Jun-2024 12:00Light Rain17°C7 mph, SW100%5504m1005hPa99%
28-Jun-2024 15:00Light Rain16°C11 mph, SW100%10000m1005hPa91%
28-Jun-2024 18:00Light Rain18°C11 mph, SW66%10000m1006hPa57%
28-Jun-2024 21:00Clear Sky13°C11 mph, SW2%10000m1008hPa78%
29-Jun-2024 00:00Scattered Clouds13°C11 mph, SW44%10000m1009hPa79%
29-Jun-2024 03:00Broken Clouds11°C9 mph, SW57%10000m1010hPa82%
29-Jun-2024 06:00Broken Clouds14°C11 mph, SW62%10000m1011hPa63%
29-Jun-2024 09:00Overcast Clouds18°C11 mph, SW95%10000m1012hPa49%
29-Jun-2024 12:00Overcast Clouds18°C11 mph, SW96%10000m1012hPa53%
29-Jun-2024 15:00Overcast Clouds19°C11 mph, SW93%10000m1012hPa48%
29-Jun-2024 18:00Overcast Clouds18°C7 mph, SW91%10000m1012hPa56%
29-Jun-2024 21:00Overcast Clouds12°C2 mph, SW98%10000m1012hPa79%
30-Jun-2024 00:00Overcast Clouds11°C2 mph, SE91%10000m1012hPa81%
30-Jun-2024 03:00Overcast Clouds12°C2 mph, E100%10000m1011hPa78%
30-Jun-2024 06:00Overcast Clouds14°C7 mph, NE100%10000m1009hPa69%
30-Jun-2024 09:00Light Rain13°C7 mph, E100%9916m1008hPa95%
30-Jun-2024 12:00Moderate Rain13°C13 mph, E100%8809m1003hPa97%